Portada
METAR-TAF:

METAR-TAF

Aeroports :

Great Barrier Reef Airport

Illa de Hamilton, Austràlia

latitud: 20-21-29S, longitud: 148-57-06E, altitud: 5 m

Observació

L'informe es va fer fa 33 minuts, a les 14:00 UTC
Vent 19 kt del Sud-Est
Temperatura 24°C
Humitat 83%
Pressió 1015 hPa
Visibilitat 10 km o més

METAR: YBHM 191400Z AUTO 13019KT 9999 // NCD 24/21 Q1015

Hora: 00:33 (14:33 UTC)

Pronòstic

L'informe es va fer fa 3 hores i 34 minuts, a les 10:59 UTC
Pronòstic vàlid del 19 a les 12 UTC al 19 a les 24 UTC
Vent 22 kt del Sud-Est
Visibilitat 10 km o més
Núvols disperses a una alçada de 2000 ft
Núvols disperses a una alçada de 3000 ft
xàfecs de pluja
A partir de les 19 a les 2300 UTC
Vent 24 kt del Sud/Sud-Est
Visibilitat 10 km o més
Núvols disperses a una alçada de 2000 ft
Cel ennuvolat a una alçada de 3000 ft
xàfecs de pluja

TAF: YBHM 191059Z 1912/1924 14022KT 9999 -SHRA SCT020 SCT030 FM192300 15024KT 9999 -SHRA SCT020 BKN030

Observacions i pronòstics meteorològics de més de 4000 aeroports (METAR i TAF).

Les estacions disponibles són els punts grocs i vermells al mapa.

Posi el ratolí al punt desitjat per veure el nom de l'estació.

Feu clic per veure les observacions i els pronòstics meteorològics.

Per canviar el mapa: feu clic els botons verds amb una creu de color negre per apropar; al botó verd amb un guió per allunyar la imatge; o en les fletxes verdes per a mapes adjacents.


METAR-TAF: